Time;durP1;ratioP1;P1;durP2;ratioP2;P2;SDS_P1;SDS_P2;PMS_P1;PMS_P2;Temp;Humidity;BMP_temperature;BMP_pressure;BME280_temperature;BME280_humidity;BME280_pressure;Samples;Min_cycle;Max_cycle;Signal;HPM_P1;HPM_P2
2021/04/07 00:00:25;;;;;;;19.00;2.45;;;5.50;60.00;;;;;;4995858;28;20619;-62
2021/04/07 00:02:53;;;;;;;13.77;2.88;;;5.50;60.00;;;;;;4995225;28;20997;-63
2021/04/07 00:05:22;;;;;;;11.40;2.75;;;5.40;60.00;;;;;;4988036;28;20044;-63
2021/04/07 00:07:50;;;;;;;17.88;2.65;;;5.40;60.10;;;;;;4999690;28;20034;-62
2021/04/07 00:10:19;;;;;;;18.23;2.72;;;5.40;60.30;;;;;;4988246;28;20046;-62
2021/04/07 00:12:44;;;;;;;20.75;3.50;;;5.40;60.20;;;;;;5001618;28;20034;-62
2021/04/07 00:15:21;;;;;;;16.25;2.72;;;5.40;60.20;;;;;;5005219;28;20034;-61
2021/04/07 00:17:47;;;;;;;9.38;2.97;;;5.40;60.20;;;;;;5001060;28;20490;-62
2021/04/07 00:20:16;;;;;;;32.88;4.15;;;5.40;60.30;;;;;;4994426;28;20952;-61
2021/04/07 00:22:42;;;;;;;14.68;3.30;;;5.40;61.00;;;;;;5009956;28;20065;-62
2021/04/07 00:25:08;;;;;;;12.73;3.05;;;5.40;60.40;;;;;;5005971;28;20153;-62
2021/04/07 00:27:36;;;;;;;19.63;3.03;;;5.30;60.40;;;;;;5008046;28;20037;-62
2021/04/07 00:30:05;;;;;;;14.48;2.75;;;5.40;60.60;;;;;;4989751;28;21136;-62
2021/04/07 00:32:31;;;;;;;19.15;3.17;;;5.40;60.80;;;;;;4995837;28;20041;-62
2021/04/07 00:34:57;;;;;;;15.30;3.25;;;5.40;60.80;;;;;;4998724;28;20098;-62
2021/04/07 00:37:25;;;;;;;20.08;2.90;;;5.40;60.90;;;;;;5004029;28;20056;-62
2021/04/07 00:39:51;;;;;;;15.50;2.58;;;5.50;60.80;;;;;;4997662;28;20063;-62
2021/04/07 00:42:17;;;;;;;13.48;2.72;;;5.50;60.70;;;;;;5010138;28;20087;-62
2021/04/07 00:44:42;;;;;;;17.92;2.78;;;5.50;60.60;;;;;;5005667;28;20041;-62
2021/04/07 00:47:08;;;;;;;22.88;2.50;;;5.50;60.50;;;;;;5004274;28;20045;-61
2021/04/07 00:49:34;;;;;;;12.45;2.20;;;5.40;60.30;;;;;;5005850;28;20038;-61
2021/04/07 00:52:00;;;;;;;17.83;2.65;;;5.40;60.20;;;;;;5003073;28;20048;-61
2021/04/07 00:54:26;;;;;;;19.23;3.08;;;5.30;60.10;;;;;;5013700;28;20049;-62
2021/04/07 00:56:53;;;;;;;18.13;2.92;;;5.30;60.10;;;;;;5001269;28;20083;-62
2021/04/07 00:59:20;;;;;;;17.42;2.50;;;5.30;60.20;;;;;;4999262;28;20041;-61
2021/04/07 01:01:46;;;;;;;14.00;3.05;;;5.20;60.90;;;;;;5007406;28;20034;-62
2021/04/07 01:04:11;;;;;;;19.77;2.88;;;5.20;60.10;;;;;;5002170;28;20041;-61
2021/04/07 01:06:40;;;;;;;9.63;2.05;;;5.10;60.10;;;;;;5014873;28;20030;-62
2021/04/07 01:09:05;;;;;;;17.10;2.60;;;5.10;60.10;;;;;;4999890;28;20045;-62
2021/04/07 01:11:31;;;;;;;13.70;2.30;;;5.10;60.20;;;;;;5001074;28;20041;-62
2021/04/07 01:13:59;;;;;;;15.70;2.47;;;5.10;60.30;;;;;;4998544;28;20136;-63
2021/04/07 01:16:25;;;;;;;11.07;2.40;;;5.10;60.30;;;;;;4998785;28;20140;-62
2021/04/07 01:18:53;;;;;;;13.93;2.47;;;5.10;60.30;;;;;;4999706;28;20037;-62
2021/04/07 01:21:21;;;;;;;13.30;2.17;;;5.00;60.20;;;;;;4994473;28;20377;-62
2021/04/07 01:23:47;;;;;;;28.75;2.92;;;5.00;60.40;;;;;;5000827;28;20030;-62
2021/04/07 01:26:14;;;;;;;17.33;2.42;;;5.00;60.30;;;;;;5002770;28;20362;-62
2021/04/07 01:28:40;;;;;;;13.35;2.20;;;5.00;60.40;;;;;;4998220;28;20048;-61
2021/04/07 01:31:07;;;;;;;19.13;2.50;;;4.90;60.40;;;;;;5004356;28;20049;-62
2021/04/07 01:33:35;;;;;;;21.20;2.78;;;4.90;60.30;;;;;;5001720;28;20053;-62
2021/04/07 01:36:04;;;;;;;21.52;2.45;;;4.90;60.40;;;;;;5010438;28;20114;-62
2021/04/07 01:38:30;;;;;;;14.07;3.33;;;4.90;60.30;;;;;;4998751;28;20505;-61
2021/04/07 01:40:56;;;;;;;17.17;2.30;;;4.90;60.40;;;;;;4993981;28;20038;-61
2021/04/07 01:43:22;;;;;;;13.32;2.88;;;4.80;60.40;;;;;;4993538;28;20678;-61
2021/04/07 01:45:50;;;;;;;17.05;2.30;;;4.80;60.50;;;;;;4986501;28;20056;-61
2021/04/07 01:48:17;;;;;;;7.43;2.17;;;4.80;60.50;;;;;;5011627;28;20042;-61
2021/04/07 01:50:46;;;;;;;20.13;2.60;;;4.80;60.50;;;;;;4994382;28;20041;-61
2021/04/07 01:53:17;;;;;;;14.57;2.78;;;4.80;60.40;;;;;;4991986;28;20144;-61
2021/04/07 01:55:43;;;;;;;15.73;2.55;;;4.80;60.90;;;;;;4994667;28;20171;-61
2021/04/07 01:58:11;;;;;;;20.73;2.30;;;4.80;60.50;;;;;;4994132;28;20057;-62
2021/04/07 02:00:39;;;;;;;18.65;2.53;;;4.80;60.50;;;;;;4992617;28;20267;-61
2021/04/07 02:03:05;;;;;;;12.50;2.33;;;4.70;60.50;;;;;;4989732;28;20503;-61
2021/04/07 02:05:31;;;;;;;16.80;3.05;;;4.80;60.50;;;;;;4983480;28;20041;-61
2021/04/07 02:07:58;;;;;;;23.48;2.92;;;4.70;60.60;;;;;;4978988;28;20104;-61
2021/04/07 02:10:24;;;;;;;13.63;2.08;;;4.70;60.60;;;;;;4994682;28;20649;-61
2021/04/07 02:12:57;;;;;;;16.55;2.67;;;4.70;60.60;;;;;;4969866;28;20184;-62
2021/04/07 02:15:24;;;;;;;19.13;2.67;;;4.70;60.70;;;;;;4979696;28;20140;-61
2021/04/07 02:17:51;;;;;;;13.15;3.20;;;4.70;60.70;;;;;;4978030;28;20338;-61
2021/04/07 02:20:21;;;;;;;18.23;2.58;;;4.70;60.70;;;;;;4972857;28;20562;-61
2021/04/07 02:22:49;;;;;;;10.40;3.05;;;4.70;60.70;;;;;;4975410;28;20310;-61
2021/04/07 02:25:15;;;;;;;16.95;2.90;;;4.70;60.60;;;;;;4968903;28;20442;-61
2021/04/07 02:27:41;;;;;;;16.92;2.45;;;4.70;60.60;;;;;;4984645;28;20091;-61
2021/04/07 02:30:13;;;;;;;19.95;2.88;;;4.60;60.60;;;;;;4976909;28;20073;-61
2021/04/07 02:32:41;;;;;;;12.80;2.30;;;4.60;61.30;;;;;;4968927;28;20045;-61
2021/04/07 02:35:08;;;;;;;16.58;2.50;;;4.60;60.60;;;;;;4974782;28;20123;-61
2021/04/07 02:37:33;;;;;;;14.15;2.60;;;4.60;60.70;;;;;;4979371;28;20668;-61
2021/04/07 02:40:03;;;;;;;18.05;2.10;;;4.60;60.80;;;;;;4974779;28;20700;-61
2021/04/07 02:42:28;;;;;;;6.82;1.98;;;4.60;60.80;;;;;;4977673;28;20109;-61
2021/04/07 02:44:54;;;;;;;14.23;2.58;;;4.60;60.80;;;;;;4978823;28;20045;-61
2021/04/07 02:47:22;;;;;;;12.07;2.28;;;4.60;60.70;;;;;;4972809;28;20368;-62
2021/04/07 02:49:47;;;;;;;8.68;2.03;;;4.60;60.70;;;;;;4973546;28;20052;-62
2021/04/07 02:52:13;;;;;;;14.70;2.35;;;4.60;60.70;;;;;;4976733;28;20037;-61
2021/04/07 02:54:38;;;;;;;18.60;2.67;;;4.60;60.80;;;;;;4980290;28;20491;-61
2021/04/07 02:57:05;;;;;;;11.52;2.50;;;4.50;60.70;;;;;;4973156;28;20160;-61
2021/04/07 02:59:31;;;;;;;13.63;1.95;;;4.50;60.70;;;;;;4974807;28;20045;-61
2021/04/07 03:01:57;;;;;;;15.73;2.28;;;4.50;60.70;;;;;;4971439;28;20046;-61
2021/04/07 03:04:22;;;;;;;22.35;2.90;;;4.50;60.80;;;;;;4975417;28;20503;-61
2021/04/07 03:06:48;;;;;;;22.08;2.80;;;4.50;61.50;;;;;;4982186;28;20033;-61
2021/04/07 03:09:16;;;;;;;17.77;2.88;;;4.40;60.70;;;;;;4971934;28;20670;-61
2021/04/07 03:11:42;;;;;;;17.02;2.45;;;4.40;60.80;;;;;;4972148;28;20041;-61
2021/04/07 03:14:08;;;;;;;23.52;3.22;;;4.40;60.80;;;;;;4968569;28;20072;-61
2021/04/07 03:16:36;;;;;;;16.40;2.58;;;4.40;60.80;;;;;;4974219;28;20748;-60
2021/04/07 03:19:03;;;;;;;15.18;2.78;;;4.40;60.80;;;;;;4978468;28;20037;-61
2021/04/07 03:21:31;;;;;;;15.18;2.72;;;4.30;60.80;;;;;;4971271;28;20041;-61
2021/04/07 03:23:56;;;;;;;11.35;2.35;;;4.30;60.80;;;;;;4972912;28;20616;-61
2021/04/07 03:26:22;;;;;;;8.43;1.90;;;4.30;60.80;;;;;;4974059;28;22020;-61
2021/04/07 03:28:48;;;;;;;9.18;2.15;;;4.30;60.90;;;;;;4970558;28;21077;-63
2021/04/07 03:31:13;;;;;;;13.73;2.38;;;4.30;61.00;;;;;;4970383;28;20052;-61
2021/04/07 03:33:39;;;;;;;16.55;2.25;;;4.30;61.10;;;;;;4969015;28;20065;-61
2021/04/07 03:36:06;;;;;;;11.23;2.78;;;4.30;61.20;;;;;;4985521;28;20566;-61
2021/04/07 03:38:32;;;;;;;11.90;2.70;;;4.30;61.20;;;;;;4973722;28;20044;-61
2021/04/07 03:40:58;;;;;;;16.08;2.75;;;4.30;61.10;;;;;;4975831;28;20363;-61
2021/04/07 03:43:27;;;;;;;8.05;2.40;;;4.30;61.10;;;;;;4970325;28;20079;-61
2021/04/07 03:45:56;;;;;;;17.90;2.80;;;4.30;61.20;;;;;;4976855;28;20052;-61
2021/04/07 03:48:23;;;;;;;11.40;2.40;;;4.30;61.20;;;;;;4991088;28;20083;-61
2021/04/07 03:50:55;;;;;;;15.82;2.40;;;4.30;61.20;;;;;;4975775;28;20177;-63
2021/04/07 03:53:21;;;;;;;22.38;2.47;;;4.20;61.10;;;;;;4977546;28;20037;-60
2021/04/07 03:55:51;;;;;;;16.20;2.63;;;4.20;61.10;;;;;;4974016;28;20052;-61
2021/04/07 03:58:17;;;;;;;10.70;2.30;;;4.20;61.20;;;;;;4978620;28;20095;-61
2021/04/07 04:00:46;;;;;;;11.48;3.20;;;4.20;61.40;;;;;;4978831;28;20140;-61
2021/04/07 04:03:11;;;;;;;16.35;2.70;;;4.30;61.60;;;;;;4971740;28;20064;-61
2021/04/07 04:05:40;;;;;;;16.98;2.05;;;4.30;61.50;;;;;;4974084;28;20042;-61
2021/04/07 04:08:09;;;;;;;13.70;2.75;;;4.30;61.50;;;;;;4971605;28;20049;-61
2021/04/07 04:10:35;;;;;;;14.05;2.70;;;4.30;61.40;;;;;;4978063;28;20454;-60
2021/04/07 04:13:02;;;;;;;10.88;2.58;;;4.30;61.30;;;;;;4970775;28;20049;-60
2021/04/07 04:15:28;;;;;;;18.27;2.58;;;4.30;61.30;;;;;;4975049;28;20041;-61
2021/04/07 04:17:53;;;;;;;18.65;2.90;;;4.30;61.40;;;;;;4971618;28;20049;-61
2021/04/07 04:20:20;;;;;;;16.25;2.35;;;4.30;61.50;;;;;;4971387;28;20038;-61
2021/04/07 04:22:46;;;;;;;17.48;2.42;;;4.30;61.60;;;;;;4991530;28;20112;-61
2021/04/07 04:25:14;;;;;;;17.23;2.70;;;4.40;61.70;;;;;;4986921;28;20402;-61
2021/04/07 04:27:40;;;;;;;22.30;2.60;;;4.40;61.80;;;;;;4972590;28;20037;-61
2021/04/07 04:30:08;;;;;;;15.15;2.55;;;4.40;61.80;;;;;;4972761;28;20525;-61
2021/04/07 04:32:36;;;;;;;18.45;2.75;;;4.50;62.00;;;;;;4974141;28;20963;-60
2021/04/07 04:35:01;;;;;;;17.33;2.63;;;4.60;62.20;;;;;;4970927;28;20192;-61
2021/04/07 04:37:27;;;;;;;18.45;3.00;;;4.60;62.20;;;;;;4973175;28;20064;-61
2021/04/07 04:39:53;;;;;;;16.83;2.80;;;4.70;62.30;;;;;;4974216;28;20045;-61
2021/04/07 04:42:19;;;;;;;25.50;3.80;;;4.80;62.30;;;;;;4976039;28;20070;-62
2021/04/07 04:44:45;;;;;;;16.67;2.92;;;4.80;62.20;;;;;;4984431;28;20033;-62
2021/04/07 04:47:13;;;;;;;13.50;3.40;;;4.90;62.20;;;;;;4969628;28;20418;-62
2021/04/07 04:49:38;;;;;;;20.95;3.13;;;5.00;62.40;;;;;;4986758;28;20697;-61
2021/04/07 04:52:04;;;;;;;16.35;2.97;;;5.00;62.20;;;;;;4988032;28;20905;-61
2021/04/07 04:54:30;;;;;;;8.65;2.30;;;5.10;62.20;;;;;;4980260;28;20045;-61
2021/04/07 04:56:55;;;;;;;10.95;2.55;;;5.10;62.20;;;;;;4990514;28;20205;-61
2021/04/07 04:59:21;;;;;;;17.55;2.92;;;5.20;62.10;;;;;;4985866;28;20056;-61
2021/04/07 05:01:46;;;;;;;11.10;2.35;;;5.20;62.10;;;;;;4980651;28;20048;-61
2021/04/07 05:04:12;;;;;;;11.85;2.38;;;5.30;62.20;;;;;;4980589;28;20040;-61
2021/04/07 05:06:38;;;;;;;21.48;3.00;;;5.30;62.10;;;;;;4980556;28;20029;-61
2021/04/07 05:09:04;;;;;;;15.43;2.63;;;5.40;62.10;;;;;;4982608;28;20586;-61
2021/04/07 05:11:33;;;;;;;18.92;3.03;;;5.40;62.20;;;;;;4987652;28;20042;-62
2021/04/07 05:14:03;;;;;;;15.73;2.78;;;5.50;62.40;;;;;;4999158;28;20505;-61
2021/04/07 05:16:29;;;;;;;20.27;3.35;;;5.60;62.40;;;;;;4983056;28;20132;-61
2021/04/07 05:18:55;;;;;;;15.57;3.00;;;5.60;62.30;;;;;;4998805;28;20672;-62
2021/04/07 05:21:21;;;;;;;12.30;3.00;;;5.70;62.90;;;;;;5013722;28;20463;-61
2021/04/07 05:23:46;;;;;;;15.93;3.15;;;5.70;62.00;;;;;;5007752;28;20029;-61
2021/04/07 05:26:14;;;;;;;6.47;2.20;;;5.70;62.70;;;;;;5016115;28;20049;-61
2021/04/07 05:28:41;;;;;;;10.88;2.55;;;5.80;62.10;;;;;;5010757;28;20124;-62
2021/04/07 05:31:10;;;;;;;8.95;2.75;;;5.80;62.00;;;;;;5012736;28;20037;-62
2021/04/07 05:33:37;;;;;;;13.02;2.55;;;5.90;62.00;;;;;;5013469;28;20092;-61
2021/04/07 05:36:05;;;;;;;22.25;3.83;;;5.90;62.00;;;;;;5012940;28;20137;-61
2021/04/07 05:38:31;;;;;;;12.27;2.42;;;6.00;62.00;;;;;;5010424;28;20175;-62
2021/04/07 05:40:57;;;;;;;12.63;2.92;;;6.00;61.90;;;;;;5014557;28;20562;-61
2021/04/07 05:43:24;;;;;;;7.45;2.53;;;6.00;61.90;;;;;;5020155;28;20052;-61
2021/04/07 05:45:52;;;;;;;7.40;2.70;;;6.00;61.80;;;;;;5008137;28;20045;-62
2021/04/07 05:48:18;;;;;;;14.15;3.10;;;6.10;61.90;;;;;;4998708;28;21869;-61
2021/04/07 05:50:46;;;;;;;7.25;2.20;;;6.10;61.90;;;;;;5005216;28;20083;-62
2021/04/07 05:53:12;;;;;;;9.30;2.90;;;6.10;61.90;;;;;;5010022;28;20045;-61
2021/04/07 05:55:42;;;;;;;11.48;3.03;;;6.10;61.80;;;;;;5019471;28;20395;-62
2021/04/07 05:58:08;;;;;;;10.57;2.75;;;6.10;61.80;;;;;;5013330;28;20114;-62
2021/04/07 06:00:38;;;;;;;13.30;3.40;;;6.20;61.90;;;;;;5014026;28;20061;-62
2021/04/07 06:03:05;;;;;;;7.90;2.83;;;6.20;62.00;;;;;;5016015;28;20041;-61
2021/04/07 06:05:31;;;;;;;11.23;2.78;;;6.20;62.00;;;;;;5010180;28;20158;-62
2021/04/07 06:07:57;;;;;;;10.82;2.97;;;6.30;62.00;;;;;;5010321;28;20026;-62
2021/04/07 06:10:26;;;;;;;8.63;2.60;;;6.30;62.00;;;;;;5006850;28;20429;-62
2021/04/07 06:12:52;;;;;;;8.05;2.65;;;6.40;62.10;;;;;;4996834;28;20068;-61
2021/04/07 06:15:18;;;;;;;8.52;2.95;;;6.50;62.80;;;;;;5002783;28;20041;-62
2021/04/07 06:17:53;;;;;;;11.20;2.35;;;6.50;62.00;;;;;;5003835;28;20038;-62
2021/04/07 06:20:20;;;;;;;8.18;2.60;;;6.60;62.00;;;;;;4986102;28;20048;-63
2021/04/07 06:22:45;;;;;;;9.57;2.47;;;6.60;61.80;;;;;;4980254;28;20038;-60
2021/04/07 06:25:12;;;;;;;8.20;2.50;;;6.60;61.80;;;;;;4974592;28;20061;-62
2021/04/07 06:27:37;;;;;;;5.90;2.67;;;6.70;61.90;;;;;;4972010;28;20092;-62
2021/04/07 06:30:07;;;;;;;8.05;3.03;;;6.70;61.90;;;;;;4982622;28;20041;-62
2021/04/07 06:32:32;;;;;;;8.52;2.80;;;6.80;61.80;;;;;;5008358;28;20037;-62
2021/04/07 06:34:58;;;;;;;4.45;2.60;;;6.80;61.70;;;;;;5013003;28;20051;-62
2021/04/07 06:37:23;;;;;;;3.80;2.88;;;6.90;61.70;;;;;;5009924;28;20046;-62
2021/04/07 06:39:49;;;;;;;9.68;2.90;;;6.90;61.70;;;;;;5015228;28;20056;-63
2021/04/07 06:42:15;;;;;;;4.28;2.30;;;7.00;61.70;;;;;;5014363;28;20065;-61
2021/04/07 06:44:41;;;;;;;5.75;3.10;;;7.00;61.60;;;;;;5014331;28;20192;-62
2021/04/07 06:47:07;;;;;;;8.45;3.00;;;7.00;61.70;;;;;;4999735;28;20049;-62
2021/04/07 06:49:33;;;;;;;5.50;2.97;;;7.10;61.60;;;;;;5010827;28;20034;-62
2021/04/07 06:52:02;;;;;;;4.95;3.13;;;7.10;61.40;;;;;;5030780;28;20088;-61
2021/04/07 06:54:28;;;;;;;5.28;2.50;;;7.10;61.60;;;;;;5014865;28;20045;-61
2021/04/07 06:56:54;;;;;;;5.90;2.50;;;7.20;61.70;;;;;;5012157;28;20591;-61
2021/04/07 06:59:21;;;;;;;7.88;2.60;;;7.20;61.60;;;;;;5017497;28;20095;-61
2021/04/07 07:01:49;;;;;;;4.28;2.70;;;7.30;61.80;;;;;;5014840;28;20064;-61
2021/04/07 07:04:15;;;;;;;3.95;2.72;;;7.40;62.20;;;;;;5005849;28;20039;-62
2021/04/07 07:06:40;;;;;;;5.18;2.85;;;7.50;62.00;;;;;;5015900;28;20263;-61
2021/04/07 07:09:13;;;;;;;4.40;2.50;;;7.60;61.80;;;;;;5008425;28;20124;-62
2021/04/07 07:11:39;;;;;;;5.53;2.58;;;7.70;61.50;;;;;;5010680;28;20791;-61
2021/04/07 07:14:05;;;;;;;5.45;2.70;;;7.70;61.20;;;;;;5005684;28;20037;-61
2021/04/07 07:16:30;;;;;;;7.35;2.72;;;7.70;61.10;;;;;;5008444;28;20041;-61
2021/04/07 07:18:56;;;;;;;3.78;2.30;;;7.70;61.90;;;;;;5027245;28;20411;-61
2021/04/07 07:21:22;;;;;;;4.53;2.47;;;7.80;61.40;;;;;;5013768;28;20036;-61
2021/04/07 07:23:49;;;;;;;5.90;2.80;;;7.80;62.20;;;;;;5011547;28;20094;-61
2021/04/07 07:26:16;;;;;;;5.93;2.75;;;7.90;61.90;;;;;;5010140;28;20045;-61
2021/04/07 07:28:53;;;;;;;4.30;2.45;;;7.90;61.20;;;;;;5014452;28;20057;-61
2021/04/07 07:31:30;;;;;;;4.07;2.40;;;8.00;61.20;;;;;;5010035;28;20124;-61
2021/04/07 07:34:04;;;;;;;6.00;2.65;;;8.20;61.60;;;;;;5017091;28;20037;-61
2021/04/07 07:36:33;;;;;;;4.05;2.50;;;8.30;61.30;;;;;;5010535;28;20034;-62
2021/04/07 07:38:59;;;;;;;2.83;2.17;;;8.40;61.20;;;;;;5003759;28;20487;-62
2021/04/07 07:41:30;;;;;;;3.78;2.45;;;8.40;60.80;;;;;;5006885;28;20048;-62
2021/04/07 07:43:55;;;;;;;6.40;2.30;;;8.50;60.50;;;;;;5011241;28;20189;-62
2021/04/07 07:46:26;;;;;;;3.88;2.35;;;8.50;60.50;;;;;;5008777;28;20037;-61
2021/04/07 07:48:52;;;;;;;3.50;2.10;;;8.50;60.60;;;;;;5007031;28;20301;-62
2021/04/07 07:51:23;;;;;;;4.50;2.38;;;8.60;60.80;;;;;;5010086;28;20037;-61
2021/04/07 07:53:52;;;;;;;5.72;2.10;;;8.70;60.80;;;;;;5010183;28;20046;-61
2021/04/07 07:56:22;;;;;;;3.28;2.00;;;8.80;60.80;;;;;;5002339;28;20154;-62
2021/04/07 07:58:52;;;;;;;5.78;2.20;;;9.00;60.60;;;;;;5013518;28;20064;-61
2021/04/07 08:01:19;;;;;;;5.78;2.28;;;9.10;60.40;;;;;;5011696;28;20064;-61
2021/04/07 08:03:47;;;;;;;4.43;2.50;;;9.10;60.00;;;;;;5019507;28;20552;-61
2021/04/07 08:06:14;;;;;;;4.07;2.20;;;9.20;60.00;;;;;;5010485;28;20908;-62
2021/04/07 08:08:40;;;;;;;5.50;2.28;;;9.30;60.00;;;;;;5026607;28;20572;-61
2021/04/07 08:11:09;;;;;;;3.40;2.60;;;9.50;60.40;;;;;;5014679;28;20041;-62
2021/04/07 08:13:37;;;;;;;3.55;2.13;;;9.90;62.20;;;;;;5017527;28;20049;-62
2021/04/07 08:16:05;;;;;;;5.13;2.22;;;10.70;61.60;;;;;;5007837;28;20033;-62
2021/04/07 08:18:31;;;;;;;4.43;2.00;;;11.10;59.80;;;;;;5008704;28;20033;-62
2021/04/07 08:20:58;;;;;;;3.95;1.75;;;11.40;58.90;;;;;;5007780;28;20137;-62
2021/04/07 08:23:24;;;;;;;3.30;2.15;;;11.50;58.10;;;;;;5009860;28;20451;-62
2021/04/07 08:25:55;;;;;;;4.28;2.13;;;11.50;57.40;;;;;;5008901;28;20037;-63
2021/04/07 08:28:22;;;;;;;4.22;1.88;;;11.50;56.50;;;;;;5003461;28;20684;-61
2021/04/07 08:30:49;;;;;;;4.15;2.45;;;11.40;56.20;;;;;;5011729;28;20056;-62
2021/04/07 08:33:18;;;;;;;6.18;2.40;;;11.20;56.00;;;;;;5016723;28;20060;-62
2021/04/07 08:35:44;;;;;;;6.75;2.75;;;11.00;56.40;;;;;;5015845;28;20038;-61
2021/04/07 08:38:10;;;;;;;6.50;2.50;;;11.10;57.40;;;;;;5012726;28;20477;-63
2021/04/07 08:40:41;;;;;;;9.38;2.50;;;11.40;57.20;;;;;;5006899;28;20029;-63
2021/04/07 08:43:12;;;;;;;4.53;2.72;;;11.40;56.10;;;;;;5015557;28;20040;-63
2021/04/07 08:45:45;;;;;;;7.03;2.55;;;11.40;55.80;;;;;;5014148;28;20144;-63
2021/04/07 08:48:18;;;;;;;5.35;2.85;;;11.30;56.10;;;;;;5006331;28;20127;-63
2021/04/07 08:50:47;;;;;;;5.93;2.83;;;11.30;55.90;;;;;;5015961;28;20574;-62
2021/04/07 08:53:17;;;;;;;7.55;3.10;;;11.30;55.90;;;;;;5014711;28;20479;-62
2021/04/07 08:55:54;;;;;;;7.45;4.00;;;11.20;55.50;;;;;;5017652;28;20074;-62
2021/04/07 08:58:24;;;;;;;8.70;4.00;;;11.10;55.70;;;;;;5013976;28;20124;-62
2021/04/07 09:00:53;;;;;;;6.50;4.03;;;11.10;56.10;;;;;;5013649;28;20057;-63
2021/04/07 09:03:22;;;;;;;8.55;4.35;;;11.30;57.40;;;;;;5008404;28;20376;-62
2021/04/07 09:05:57;;;;;;;10.13;4.85;;;11.90;57.20;;;;;;5012618;28;20495;-62
2021/04/07 09:08:27;;;;;;;9.75;5.20;;;12.50;56.40;;;;;;5010843;28;20072;-62
2021/04/07 09:10:58;;;;;;;11.45;4.45;;;13.20;56.70;;;;;;5003840;28;20386;-62
2021/04/07 09:13:33;;;;;;;5.88;2.95;;;15.40;58.00;;;;;;5003445;28;20195;-63
2021/04/07 09:16:05;;;;;;;7.43;3.00;;;16.50;53.90;;;;;;5009915;28;20048;-63
2021/04/07 09:18:43;;;;;;;3.97;3.00;;;17.70;50.10;;;;;;5015727;28;20111;-63
2021/04/07 09:21:18;;;;;;;7.13;3.75;;;19.30;47.50;;;;;;5010010;28;20399;-63
2021/04/07 09:23:54;;;;;;;5.07;3.40;;;20.90;43.20;;;;;;5010610;28;20045;-64
2021/04/07 09:26:24;;;;;;;7.80;4.10;;;22.20;41.50;;;;;;5008627;28;20499;-64
2021/04/07 09:28:51;;;;;;;8.32;3.63;;;22.90;38.00;;;;;;4999245;28;20096;-65
2021/04/07 09:31:27;;;;;;;4.45;3.35;;;22.30;36.30;;;;;;5016346;28;20037;-63
2021/04/07 09:33:55;;;;;;;7.93;3.38;;;21.20;36.60;;;;;;5002636;28;20091;-64
2021/04/07 09:36:27;;;;;;;8.18;3.97;;;19.90;37.80;;;;;;5001445;28;20038;-63
2021/04/07 09:38:56;;;;;;;12.75;4.05;;;18.90;39.20;;;;;;5007542;28;20033;-63
2021/04/07 09:41:29;;;;;;;4.82;3.50;;;18.10;40.00;;;;;;5008126;28;20037;-63
2021/04/07 09:43:56;;;;;;;9.13;4.18;;;17.30;40.90;;;;;;5013191;28;20095;-63
2021/04/07 09:46:24;;;;;;;10.23;3.22;;;16.60;41.80;;;;;;5011804;28;20091;-63
2021/04/07 09:48:53;;;;;;;6.90;4.32;;;16.00;42.40;;;;;;5000705;28;20459;-64
2021/04/07 09:51:34;;;;;;;7.50;3.30;;;15.30;43.50;;;;;;5008390;28;20228;-63
2021/04/07 09:54:21;;;;;;;4.25;3.00;;;14.80;44.40;;;;;;5011563;28;20048;-63
2021/04/07 09:57:01;;;;;;;9.68;3.50;;;14.30;45.00;;;;;;5008027;28;20041;-63
2021/04/07 09:59:47;;;;;;;7.30;2.95;;;13.80;45.80;;;;;;5011057;28;20099;-63
2021/04/07 10:02:22;;;;;;;7.28;2.55;;;13.50;47.10;;;;;;5009346;28;20037;-63
2021/04/07 10:04:48;;;;;;;6.13;2.63;;;13.40;47.90;;;;;;5009824;28;20140;-62
2021/04/07 10:07:18;;;;;;;6.32;2.10;;;13.40;48.50;;;;;;4998604;28;20093;-63
2021/04/07 10:09:46;;;;;;;7.80;2.60;;;13.40;48.90;;;;;;5011051;28;20033;-63
2021/04/07 10:12:12;;;;;;;7.05;2.95;;;13.40;49.10;;;;;;5009211;28;20037;-63
2021/04/07 10:14:38;;;;;;;6.82;2.70;;;13.40;49.50;;;;;;5010103;28;20557;-62
2021/04/07 10:17:18;;;;;;;6.43;2.75;;;13.40;49.40;;;;;;5008455;28;20045;-62
2021/04/07 10:19:44;;;;;;;5.60;2.47;;;13.40;50.30;;;;;;5007299;28;20040;-63
2021/04/07 10:22:16;;;;;;;6.97;2.38;;;13.80;51.40;;;;;;5007172;28;20925;-63
2021/04/07 10:24:43;;;;;;;6.57;2.35;;;14.60;51.60;;;;;;4982165;28;20041;-63
2021/04/07 10:27:09;;;;;;;6.03;2.65;;;15.40;50.00;;;;;;4979680;28;20049;-63
2021/04/07 10:29:37;;;;;;;5.63;2.38;;;16.20;48.70;;;;;;4982669;28;20044;-63
2021/04/07 10:32:04;;;;;;;5.90;2.42;;;17.30;47.60;;;;;;4979708;28;20060;-63
2021/04/07 10:34:32;;;;;;;5.70;2.75;;;17.90;45.10;;;;;;4976381;28;20045;-63
2021/04/07 10:36:59;;;;;;;12.32;3.28;;;17.70;43.60;;;;;;4970851;28;20029;-62
2021/04/07 10:39:25;;;;;;;6.35;2.08;;;17.10;43.70;;;;;;4976196;28;20036;-62
2021/04/07 10:41:53;;;;;;;12.73;2.03;;;16.40;44.40;;;;;;4983513;28;20037;-63
2021/04/07 10:44:34;;;;;;;14.43;2.83;;;15.70;45.00;;;;;;4976403;28;20675;-62
2021/04/07 10:47:00;;;;;;;9.18;2.95;;;14.90;45.80;;;;;;4990093;28;20513;-62
2021/04/07 10:49:26;;;;;;;12.45;2.10;;;14.20;47.00;;;;;;5003656;28;20683;-61
2021/04/07 10:52:05;;;;;;;14.00;1.88;;;13.70;48.00;;;;;;5010964;28;20041;-62
2021/04/07 10:54:32;;;;;;;12.10;1.85;;;13.30;49.20;;;;;;5012201;28;20545;-61
2021/04/07 10:57:09;;;;;;;12.88;2.50;;;13.10;50.50;;;;;;5012126;28;20064;-62
2021/04/07 10:59:37;;;;;;;14.50;2.13;;;13.10;50.60;;;;;;5011967;28;20046;-62
2021/04/07 11:02:13;;;;;;;11.73;2.40;;;12.90;50.90;;;;;;5022240;28;20068;-62
2021/04/07 11:04:39;;;;;;;9.90;2.30;;;12.90;51.60;;;;;;5009247;28;20041;-62
2021/04/07 11:07:06;;;;;;;14.15;2.35;;;13.10;52.30;;;;;;5006366;28;20392;-62
2021/04/07 11:09:34;;;;;;;14.45;2.10;;;13.50;53.20;;;;;;5003071;28;20042;-62
2021/04/07 11:12:03;;;;;;;12.63;2.60;;;14.10;52.40;;;;;;5004913;28;20553;-62
2021/04/07 11:14:29;;;;;;;10.02;2.45;;;14.50;50.90;;;;;;5010272;28;20049;-62
2021/04/07 11:17:03;;;;;;;19.63;2.88;;;14.50;50.00;;;;;;5010432;28;20038;-63
2021/04/07 11:19:37;;;;;;;14.00;3.20;;;14.20;49.50;;;;;;5004719;28;20567;-62
2021/04/07 11:22:04;;;;;;;14.60;2.72;;;13.90;49.60;;;;;;5006151;28;20048;-63
2021/04/07 11:24:30;;;;;;;19.67;2.90;;;13.60;50.10;;;;;;5008417;28;20044;-63
2021/04/07 11:26:59;;;;;;;10.82;2.42;;;13.30;50.90;;;;;;5007236;28;20037;-63
2021/04/07 11:29:24;;;;;;;13.18;2.58;;;13.30;52.00;;;;;;5007177;28;20053;-63
2021/04/07 11:31:53;;;;;;;14.40;2.17;;;13.70;52.90;;;;;;5006664;28;20041;-64
2021/04/07 11:34:28;;;;;;;15.80;2.30;;;14.40;51.70;;;;;;5009900;28;20723;-63
2021/04/07 11:39:48;;;;;;;7.63;2.03;;;14.90;50.10;;;;;;5000840;28;20069;-63
2021/04/07 11:42:22;;;;;;;11.90;2.50;;;14.90;48.70;;;;;;5001297;28;20037;-62
2021/04/07 11:44:47;;;;;;;16.08;2.53;;;14.60;48.20;;;;;;5009274;28;20088;-63
2021/04/07 11:47:15;;;;;;;15.27;2.58;;;14.10;47.90;;;;;;5005246;28;20775;-63
2021/04/07 11:49:41;;;;;;;17.15;2.50;;;13.70;48.30;;;;;;5001740;28;20045;-62
2021/04/07 11:52:08;;;;;;;18.58;3.10;;;13.30;48.80;;;;;;5005584;28;20072;-63
2021/04/07 11:54:33;;;;;;;17.73;2.67;;;13.00;49.40;;;;;;5011373;28;20037;-63
2021/04/07 11:57:03;;;;;;;10.68;2.63;;;12.90;50.10;;;;;;5002651;28;20057;-63
2021/04/07 11:59:29;;;;;;;6.85;1.80;;;12.70;50.40;;;;;;5011150;28;20037;-63
2021/04/07 12:01:55;;;;;;;11.32;2.25;;;12.60;50.90;;;;;;5001601;28;20045;-63
2021/04/07 12:04:23;;;;;;;12.20;2.25;;;12.60;51.30;;;;;;5004992;28;20043;-65
2021/04/07 12:06:49;;;;;;;15.10;2.22;;;12.70;51.80;;;;;;5003077;28;20041;-64
2021/04/07 12:09:14;;;;;;;22.65;2.83;;;13.00;52.80;;;;;;4992088;28;20049;-64
2021/04/07 12:11:45;;;;;;;18.98;3.03;;;13.40;52.40;;;;;;5017915;28;21914;-62
2021/04/07 12:14:10;;;;;;;19.10;3.08;;;13.80;52.40;;;;;;5010979;28;20052;-62
2021/04/07 12:16:40;;;;;;;24.15;3.10;;;14.30;52.00;;;;;;5004311;28;20053;-61
2021/04/07 12:19:07;;;;;;;16.88;3.15;;;14.70;50.70;;;;;;5004465;28;20045;-62
2021/04/07 12:21:33;;;;;;;14.55;2.97;;;14.90;49.70;;;;;;5008938;28;20048;-63
2021/04/07 12:23:59;;;;;;;20.33;2.92;;;15.10;49.00;;;;;;5012503;28;20029;-62
2021/04/07 12:26:24;;;;;;;18.00;2.75;;;15.00;48.10;;;;;;5014613;28;20072;-63
2021/04/07 12:28:50;;;;;;;20.00;2.50;;;14.80;47.60;;;;;;5006207;28;20550;-64
2021/04/07 12:31:17;;;;;;;11.55;2.47;;;14.50;47.50;;;;;;5010179;28;21555;-62
2021/04/07 12:33:50;;;;;;;21.05;3.10;;;14.20;47.90;;;;;;5020989;28;20293;-61
2021/04/07 12:36:21;;;;;;;18.65;3.08;;;14.00;48.10;;;;;;5007137;28;20037;-63
2021/04/07 12:38:46;;;;;;;17.77;2.95;;;14.00;48.10;;;;;;5015354;28;20083;-62
2021/04/07 12:41:23;;;;;;;11.80;1.90;;;13.90;47.80;;;;;;5007633;28;20046;-63
2021/04/07 12:43:49;;;;;;;6.80;2.03;;;13.80;47.80;;;;;;5008853;28;20312;-61
2021/04/07 12:46:15;;;;;;;7.00;1.38;;;13.50;47.10;;;;;;5004059;28;20928;-62
2021/04/07 12:48:43;;;;;;;7.47;1.20;;;13.00;47.30;;;;;;5008518;28;20050;-62
2021/04/07 12:51:11;;;;;;;6.13;1.20;;;12.50;48.20;;;;;;5012995;28;20041;-62
2021/04/07 12:53:39;;;;;;;7.45;1.42;;;12.20;49.80;;;;;;5006679;28;20030;-62